createdAt,value
2018-06-13T00:01:11.246Z,1.63
2018-06-13T00:06:05.804Z,4.33
2018-06-13T00:11:00.221Z,2.53
2018-06-13T00:15:54.773Z,2.13
2018-06-13T00:20:49.191Z,1.57
2018-06-13T00:25:44.800Z,1.47
2018-06-13T00:30:39.232Z,1.50
2018-06-13T00:35:33.621Z,1.37
2018-06-13T00:40:28.021Z,2.23
2018-06-13T00:45:22.470Z,2.40
2018-06-13T00:50:16.889Z,3.77
2018-06-13T00:55:11.296Z,2.67
2018-06-13T01:00:06.090Z,1.93
2018-06-13T01:05:00.512Z,1.87
2018-06-13T01:09:54.940Z,2.10
2018-06-13T01:14:49.369Z,3.37
2018-06-13T01:19:43.785Z,4.43
2018-06-13T01:24:38.181Z,3.50
2018-06-13T01:29:32.734Z,3.90
2018-06-13T01:34:27.126Z,2.57
2018-06-13T01:39:21.561Z,4.40
2018-06-13T01:44:15.964Z,3.80
2018-06-13T01:49:10.386Z,3.50
2018-06-13T01:54:04.791Z,4.90
2018-06-13T01:58:59.209Z,2.63
2018-06-13T02:03:53.602Z,2.30
2018-06-13T02:08:48.007Z,4.70
2018-06-13T02:13:42.413Z,1.30
2018-06-13T02:18:36.833Z,0.80
2018-06-13T02:23:31.297Z,1.10
2018-06-13T02:28:25.701Z,1.77
2018-06-13T02:33:20.097Z,0.77
2018-06-13T02:38:14.496Z,0.80
2018-06-13T02:43:08.919Z,1.23
2018-06-13T02:48:03.320Z,1.00
2018-06-13T02:52:57.724Z,1.10
2018-06-13T02:57:52.165Z,1.57
2018-06-13T03:02:46.557Z,2.10
2018-06-13T03:07:40.984Z,1.23
2018-06-13T03:12:35.379Z,1.70
2018-06-13T03:17:29.809Z,1.10
2018-06-13T03:22:24.237Z,1.53
2018-06-13T03:27:18.670Z,2.73
2018-06-13T03:32:13.086Z,3.47
2018-06-13T03:37:07.525Z,1.67
2018-06-13T03:42:01.921Z,2.10
2018-06-13T03:46:56.348Z,1.70
2018-06-13T03:51:50.750Z,1.93
2018-06-13T03:56:45.164Z,2.60
2018-06-13T04:01:39.644Z,2.30
2018-06-13T04:06:34.060Z,3.20
2018-06-13T04:11:28.512Z,2.70
2018-06-13T04:16:23.024Z,3.63
2018-06-13T04:21:17.432Z,3.23
2018-06-13T04:26:11.848Z,4.03
2018-06-13T04:31:06.329Z,4.10
2018-06-13T04:36:00.725Z,4.73
2018-06-13T04:40:55.179Z,3.90
2018-06-13T04:45:49.645Z,4.40
2018-06-13T04:50:44.066Z,4.27
2018-06-13T04:55:38.466Z,4.53
2018-06-13T05:00:32.856Z,6.13
2018-06-13T05:05:27.312Z,8.23
2018-06-13T05:10:21.736Z,9.17
2018-06-13T05:15:16.197Z,11.73
2018-06-13T05:20:10.636Z,10.87
2018-06-13T05:25:05.214Z,9.27
2018-06-13T05:29:59.668Z,10.80
2018-06-13T05:34:54.280Z,11.43
2018-06-13T05:39:49.042Z,11.53
2018-06-13T05:44:43.549Z,9.17
2018-06-13T05:49:37.938Z,7.53
2018-06-13T05:54:32.382Z,6.57
2018-06-13T05:59:26.799Z,6.33
2018-06-13T06:04:21.189Z,5.53
2018-06-13T06:09:15.578Z,6.37
2018-06-13T06:14:09.994Z,4.73
2018-06-13T06:19:04.569Z,4.43
2018-06-13T06:23:59.529Z,3.37
2018-06-13T06:28:55.311Z,3.40
2018-06-13T06:33:49.840Z,3.70
2018-06-13T06:38:44.311Z,3.27
2018-06-13T06:43:39.602Z,3.13
2018-06-13T06:48:40.624Z,6.43
2018-06-13T06:53:35.282Z,6.53
2018-06-13T06:58:30.946Z,3.43
2018-06-13T07:03:25.421Z,2.77
2018-06-13T07:08:19.809Z,4.47
2018-06-13T07:13:14.752Z,4.33
2018-06-13T07:18:09.349Z,3.67
2018-06-13T07:23:05.468Z,3.27
2018-06-13T07:28:02.368Z,3.47
2018-06-13T07:32:56.936Z,2.83
2018-06-13T07:37:51.340Z,2.60
2018-06-13T07:42:46.040Z,3.53
2018-06-13T07:47:43.260Z,3.23
2018-06-13T07:52:37.689Z,4.43
2018-06-13T07:57:32.802Z,3.73
2018-06-13T08:02:27.232Z,3.70
2018-06-13T08:07:22.521Z,2.23
2018-06-13T08:12:22.356Z,5.00
2018-06-13T08:17:21.189Z,2.37
2018-06-13T08:22:33.409Z,3.60
2018-06-13T08:27:27.877Z,4.03
2018-06-13T08:32:33.624Z,3.30
2018-06-13T08:37:28.451Z,3.00
2018-06-13T08:42:23.213Z,2.97
2018-06-13T08:47:17.971Z,3.43
2018-06-13T08:52:12.408Z,4.57
2018-06-13T08:57:07.016Z,5.30
2018-06-13T09:02:01.653Z,3.80
2018-06-13T09:06:55.801Z,3.50
2018-06-13T09:11:50.554Z,3.37
2018-06-13T09:16:44.747Z,3.73
2018-06-13T09:21:40.376Z,4.37
2018-06-13T09:26:34.891Z,6.77
2018-06-13T09:31:29.258Z,4.50
2018-06-13T09:36:23.880Z,5.07
2018-06-13T09:41:18.445Z,4.93
2018-06-13T09:46:13.007Z,5.30
2018-06-13T09:51:07.590Z,7.83
2018-06-13T09:56:02.115Z,5.60
2018-06-13T10:01:01.855Z,5.90
2018-06-13T10:05:56.515Z,4.90
2018-06-13T10:10:51.684Z,5.43
2018-06-13T10:15:46.700Z,6.43
2018-06-13T10:20:50.424Z,10.57
2018-06-13T10:25:51.840Z,7.50
2018-06-13T10:30:53.570Z,8.37
2018-06-13T10:35:52.617Z,9.87
2018-06-13T10:40:54.267Z,7.00
2018-06-13T10:46:14.154Z,7.10
2018-06-13T10:51:19.685Z,6.70
2018-06-13T10:56:22.796Z,7.47
2018-06-13T11:01:17.591Z,6.80
2018-06-13T11:06:12.118Z,6.97
2018-06-13T11:13:13.738Z,7.13
2018-06-13T11:18:08.576Z,7.57
2018-06-13T11:23:03.078Z,9.03
2018-06-13T11:27:57.609Z,11.17
2018-06-13T11:32:52.078Z,8.47
2018-06-13T11:37:46.532Z,10.10
2018-06-13T11:42:41.353Z,11.23
2018-06-13T11:47:37.104Z,8.67
2018-06-13T11:52:31.625Z,10.03
2018-06-13T11:57:27.071Z,8.17
2018-06-13T12:02:21.716Z,8.83
2018-06-13T12:07:16.148Z,10.23
2018-06-13T12:12:10.594Z,8.40
2018-06-13T12:17:05.298Z,10.27
2018-06-13T12:21:59.917Z,11.07
2018-06-13T12:26:54.522Z,11.03
2018-06-13T12:31:49.048Z,8.10
2018-06-13T12:36:43.586Z,10.70
2018-06-13T12:41:38.160Z,10.50
2018-06-13T12:46:32.665Z,9.63
2018-06-13T12:51:27.281Z,10.53
2018-06-13T12:56:21.856Z,12.17
2018-06-13T13:01:17.249Z,13.20
2018-06-13T13:06:11.701Z,10.43
2018-06-13T13:11:06.862Z,12.07
2018-06-13T13:16:01.505Z,10.13
2018-06-13T13:20:56.931Z,12.13
2018-06-13T13:25:52.641Z,12.07
2018-06-13T13:30:47.123Z,10.27
2018-06-13T13:35:41.824Z,11.70
2018-06-13T13:40:45.984Z,9.10
2018-06-13T13:45:40.814Z,10.23
2018-06-13T13:50:35.696Z,9.97
2018-06-13T13:55:30.188Z,11.80
2018-06-13T14:00:24.761Z,12.73
2018-06-13T14:05:19.334Z,11.17
2018-06-13T14:10:13.816Z,11.40
2018-06-13T14:15:08.444Z,12.13
2018-06-13T14:20:03.909Z,12.83
2018-06-13T14:24:58.353Z,15.90
2018-06-13T14:29:52.936Z,17.17
2018-06-13T14:34:48.509Z,13.37
2018-06-13T14:39:42.976Z,13.10
2018-06-13T14:46:06.925Z,11.07
2018-06-13T14:51:01.532Z,9.87
2018-06-13T14:56:01.053Z,13.17
2018-06-13T15:00:55.565Z,14.93
2018-06-13T15:05:50.097Z,13.00
2018-06-13T15:10:44.960Z,10.53
2018-06-13T15:15:39.617Z,12.60
2018-06-13T15:20:34.290Z,13.33
2018-06-13T15:25:31.724Z,12.20
2018-06-13T15:30:28.756Z,16.07
2018-06-13T15:35:23.364Z,11.63
2018-06-13T15:40:17.857Z,14.77
2018-06-13T15:45:12.422Z,13.70
2018-06-13T15:50:06.988Z,9.97
2018-06-13T15:55:01.612Z,12.07
2018-06-13T15:59:56.062Z,12.00
2018-06-13T16:04:50.673Z,12.33
2018-06-13T16:09:45.135Z,10.13
2018-06-13T16:14:39.633Z,14.37
2018-06-13T16:19:34.189Z,10.50
2018-06-13T16:24:28.690Z,13.27
2018-06-13T16:29:23.257Z,11.50
2018-06-13T16:34:17.774Z,12.70
2018-06-13T16:39:12.234Z,12.77
2018-06-13T16:44:06.987Z,11.27
2018-06-13T16:49:01.417Z,15.07
2018-06-13T16:54:14.112Z,11.17
2018-06-13T16:59:08.570Z,15.53
2018-06-13T17:04:03.064Z,14.47
2018-06-13T17:08:57.481Z,13.63
2018-06-13T17:13:51.955Z,9.07
2018-06-13T17:18:46.419Z,10.17
2018-06-13T17:23:40.650Z,9.47
2018-06-13T17:28:35.298Z,11.90
2018-06-13T17:33:29.940Z,13.23
2018-06-13T17:38:24.313Z,11.63
2018-06-13T17:43:18.960Z,10.70
2018-06-13T17:48:13.466Z,13.37
2018-06-13T17:53:07.881Z,14.30
2018-06-13T17:58:02.925Z,10.93
2018-06-13T18:02:57.360Z,10.20
2018-06-13T18:07:51.876Z,12.00
2018-06-13T18:12:46.334Z,13.20
2018-06-13T18:17:40.767Z,10.97
2018-06-13T18:22:35.309Z,11.80
2018-06-13T18:27:29.928Z,12.33
2018-06-13T18:32:24.352Z,12.50
2018-06-13T18:37:18.859Z,12.33
2018-06-13T18:42:13.296Z,11.83
2018-06-13T18:47:07.766Z,15.77
2018-06-13T18:52:02.307Z,15.20
2018-06-13T18:56:58.813Z,16.27
2018-06-13T19:01:53.270Z,13.03
2018-06-13T19:06:47.712Z,14.33
2018-06-13T19:11:42.483Z,16.40
2018-06-13T19:16:36.880Z,13.43
2018-06-13T19:21:31.443Z,13.00
2018-06-13T19:26:26.000Z,12.83
2018-06-13T19:31:20.489Z,13.30
2018-06-13T19:36:14.967Z,14.20
2018-06-13T19:41:09.461Z,14.70
2018-06-13T19:46:03.892Z,16.03
2018-06-13T19:50:58.375Z,15.57
2018-06-13T19:55:57.996Z,18.17
2018-06-13T20:00:52.533Z,16.87
2018-06-13T20:05:47.035Z,16.47
2018-06-13T20:10:42.270Z,18.07
2018-06-13T20:17:46.173Z,14.30
2018-06-13T20:22:40.656Z,13.63
2018-06-13T20:27:40.453Z,16.13
2018-06-13T20:32:35.537Z,16.50
2018-06-13T20:37:29.973Z,15.43
2018-06-13T20:42:24.524Z,16.83
2018-06-13T20:47:18.926Z,16.77
2018-06-13T20:52:13.436Z,14.07
2018-06-13T20:57:07.655Z,15.67
2018-06-13T21:02:02.106Z,10.97
2018-06-13T21:06:56.525Z,7.77
2018-06-13T21:11:50.969Z,7.03
2018-06-13T21:16:45.450Z,6.60
2018-06-13T21:21:39.864Z,6.23
2018-06-13T21:26:34.372Z,9.13
2018-06-13T21:31:28.776Z,6.17
2018-06-13T21:36:23.328Z,6.57
2018-06-13T21:41:17.790Z,7.40
2018-06-13T21:46:12.297Z,6.63
2018-06-13T21:51:07.101Z,7.80
2018-06-13T21:56:01.595Z,7.97
2018-06-13T22:00:56.073Z,7.10
2018-06-13T22:05:50.508Z,8.80
2018-06-13T22:10:44.934Z,7.47
2018-06-13T22:15:39.460Z,9.60
2018-06-13T22:20:34.014Z,8.47
2018-06-13T22:25:28.613Z,7.37
2018-06-13T22:30:23.163Z,7.73
2018-06-13T22:35:17.634Z,6.80
2018-06-13T22:40:12.093Z,7.33
2018-06-13T22:45:06.724Z,9.43
2018-06-13T22:50:01.165Z,9.37
2018-06-13T22:54:56.464Z,9.10
2018-06-13T22:59:50.963Z,7.27
2018-06-13T23:04:45.413Z,7.60
2018-06-13T23:09:39.991Z,9.70
2018-06-13T23:14:34.570Z,6.40
2018-06-13T23:19:29.388Z,9.00
2018-06-13T23:24:23.829Z,9.87
2018-06-13T23:29:18.284Z,9.97
2018-06-13T23:34:12.782Z,8.37
2018-06-13T23:39:08.976Z,8.07
2018-06-13T23:44:03.805Z,8.00
2018-06-13T23:48:58.252Z,7.40
2018-06-13T23:53:52.777Z,9.47
2018-06-13T23:58:47.327Z,9.33
